createdAt,value
2018-11-26T00:00:30.461Z,4.47
2018-11-26T00:03:00.358Z,4.63
2018-11-26T00:05:29.216Z,4.43
2018-11-26T00:08:16.038Z,4.20
2018-11-26T00:12:00.254Z,4.20
2018-11-26T00:14:29.064Z,4.23
2018-11-26T00:16:57.957Z,5.33
2018-11-26T00:19:26.809Z,4.43
2018-11-26T00:21:55.636Z,4.50
2018-11-26T00:24:24.526Z,6.87
2018-11-26T00:26:53.700Z,3.67
2018-11-26T00:29:22.543Z,3.27
2018-11-26T00:31:51.330Z,3.30
2018-11-26T00:34:20.169Z,2.73
2018-11-26T00:36:48.986Z,3.87
2018-11-26T00:39:17.753Z,7.30
2018-11-26T00:41:46.536Z,4.43
2018-11-26T00:44:15.352Z,4.70
2018-11-26T00:46:44.241Z,4.97
2018-11-26T00:49:13.071Z,4.17
2018-11-26T00:51:41.881Z,3.57
2018-11-26T00:54:11.149Z,3.37
2018-11-26T00:56:39.973Z,3.67
2018-11-26T00:59:08.826Z,3.73
2018-11-26T01:01:37.666Z,3.07
2018-11-26T01:04:06.714Z,5.13
2018-11-26T01:06:35.659Z,3.97
2018-11-26T01:09:06.421Z,2.23
2018-11-26T01:11:35.401Z,3.37
2018-11-26T01:14:04.481Z,1.80
2018-11-26T01:16:33.436Z,2.00
2018-11-26T01:19:02.322Z,2.17
2018-11-26T01:21:31.252Z,2.03
2018-11-26T01:24:00.136Z,2.40
2018-11-26T01:26:28.996Z,3.30
2018-11-26T01:28:57.868Z,2.90
2018-11-26T01:31:26.809Z,3.50
2018-11-26T01:33:55.735Z,2.43
2018-11-26T01:36:24.941Z,2.47
2018-11-26T01:38:53.889Z,3.43
2018-11-26T01:41:22.919Z,2.57
2018-11-26T01:43:51.854Z,2.87
2018-11-26T01:46:20.786Z,3.23
2018-11-26T01:48:50.606Z,5.17
2018-11-26T01:51:19.654Z,3.63
2018-11-26T01:53:48.553Z,4.77
2018-11-26T01:56:17.494Z,4.87
2018-11-26T01:58:46.468Z,3.80
2018-11-26T02:01:15.404Z,2.83
2018-11-26T02:03:44.359Z,3.90
2018-11-26T02:06:13.226Z,5.73
2018-11-26T02:08:42.156Z,5.10
2018-11-26T02:11:11.051Z,4.87
2018-11-26T02:13:39.999Z,5.67
2018-11-26T02:16:08.846Z,6.20
2018-11-26T02:18:37.671Z,5.10
2018-11-26T02:21:06.541Z,4.23
2018-11-26T02:23:35.385Z,4.77
2018-11-26T02:26:04.341Z,4.50
2018-11-26T02:28:33.268Z,3.00
2018-11-26T02:31:02.241Z,5.10
2018-11-26T02:33:31.161Z,3.47
2018-11-26T02:36:00.004Z,4.70
2018-11-26T02:38:28.939Z,4.60
2018-11-26T02:40:57.799Z,3.87
2018-11-26T02:43:26.658Z,5.37
2018-11-26T02:45:55.562Z,2.43
2018-11-26T02:48:24.933Z,2.10
2018-11-26T02:50:53.848Z,1.97
2018-11-26T02:53:22.742Z,1.87
2018-11-26T02:55:51.607Z,1.90
2018-11-26T02:58:20.424Z,2.93
2018-11-26T03:00:50.139Z,4.40
2018-11-26T03:03:18.976Z,2.57
2018-11-26T03:05:47.813Z,2.27
2018-11-26T03:08:16.689Z,2.10
2018-11-26T03:10:45.526Z,1.57
2018-11-26T03:13:14.384Z,1.77
2018-11-26T03:15:43.182Z,1.93
2018-11-26T03:18:12.146Z,2.07
2018-11-26T03:20:41.024Z,1.83
2018-11-26T03:23:09.945Z,1.17
2018-11-26T03:25:38.912Z,3.97
2018-11-26T03:28:08.049Z,1.50
2018-11-26T03:30:37.044Z,1.50
2018-11-26T03:33:06.201Z,1.10
2018-11-26T03:35:35.119Z,1.70
2018-11-26T03:38:04.147Z,1.10
2018-11-26T03:40:33.271Z,0.80
2018-11-26T03:43:02.248Z,3.43
2018-11-26T03:45:31.164Z,2.43
2018-11-26T03:48:00.254Z,0.97
2018-11-26T03:50:29.189Z,1.77
2018-11-26T03:52:58.159Z,1.10
2018-11-26T03:55:27.109Z,2.00
2018-11-26T03:57:55.994Z,0.70
2018-11-26T04:00:24.932Z,0.90
2018-11-26T04:02:53.954Z,1.33
2018-11-26T04:05:23.285Z,0.80
2018-11-26T04:07:52.242Z,0.70
2018-11-26T04:10:21.244Z,1.07
2018-11-26T04:12:50.476Z,0.90
2018-11-26T04:15:19.402Z,1.47
2018-11-26T04:17:49.049Z,3.70
2018-11-26T04:20:18.058Z,19.37
2018-11-26T04:22:47.074Z,5.13
2018-11-26T04:25:16.064Z,0.83
2018-11-26T04:27:45.087Z,0.90
2018-11-26T04:30:14.082Z,1.83
2018-11-26T04:32:43.169Z,0.70
2018-11-26T04:35:12.236Z,2.43
2018-11-26T04:37:41.278Z,3.23
2018-11-26T04:40:10.776Z,4.80
2018-11-26T04:42:40.894Z,3.77
2018-11-26T04:45:10.557Z,4.10
2018-11-26T04:47:39.494Z,3.90
2018-11-26T04:50:11.261Z,1.83
2018-11-26T04:52:40.471Z,1.33
2018-11-26T04:55:11.503Z,2.10
2018-11-26T04:57:42.708Z,1.50
2018-11-26T05:00:13.183Z,2.13
2018-11-26T05:02:42.496Z,1.50
2018-11-26T05:05:13.066Z,3.20
2018-11-26T05:07:42.112Z,2.57
2018-11-26T05:10:12.946Z,2.77
2018-11-26T05:12:41.898Z,1.90
2018-11-26T05:15:12.481Z,2.20
2018-11-26T05:17:41.384Z,3.03
2018-11-26T05:20:12.714Z,2.17
2018-11-26T05:22:41.924Z,1.60
2018-11-26T05:25:11.775Z,4.13
2018-11-26T05:27:40.770Z,2.53
2018-11-26T05:30:11.707Z,2.87
2018-11-26T05:32:40.903Z,2.97
2018-11-26T05:35:12.212Z,2.13
2018-11-26T05:37:41.227Z,1.90
2018-11-26T05:40:14.116Z,1.63
2018-11-26T05:42:43.385Z,2.40
2018-11-26T05:45:15.346Z,1.40
2018-11-26T05:47:44.186Z,2.23
2018-11-26T05:50:14.491Z,1.63
2018-11-26T05:52:44.414Z,3.93
2018-11-26T05:55:16.830Z,1.80
2018-11-26T05:57:46.524Z,2.43
2018-11-26T06:00:22.997Z,1.70
2018-11-26T06:02:51.953Z,2.17
2018-11-26T06:05:20.854Z,2.53
2018-11-26T06:07:49.786Z,2.33
2018-11-26T06:10:18.614Z,3.80
2018-11-26T06:12:47.547Z,2.17
2018-11-26T06:15:16.683Z,3.93
2018-11-26T06:17:45.574Z,4.30
2018-11-26T06:20:14.549Z,5.17
2018-11-26T06:22:45.954Z,8.67
2018-11-26T06:25:18.810Z,10.57
2018-11-26T06:27:48.058Z,9.50
2018-11-26T06:30:18.846Z,6.70
2018-11-26T06:32:47.762Z,8.93
2018-11-26T06:35:20.561Z,5.37
2018-11-26T06:37:49.635Z,3.73
2018-11-26T06:40:18.634Z,6.67
2018-11-26T06:42:47.578Z,7.03
2018-11-26T06:45:20.657Z,5.73
2018-11-26T06:47:49.727Z,4.20
2018-11-26T06:50:20.010Z,4.47
2018-11-26T06:52:49.001Z,2.57
2018-11-26T06:55:19.558Z,2.97
2018-11-26T06:57:48.539Z,2.47
2018-11-26T07:00:19.576Z,3.27
2018-11-26T07:02:49.531Z,3.80
2018-11-26T07:05:19.902Z,2.67
2018-11-26T07:07:48.946Z,2.33
2018-11-26T07:10:19.026Z,2.67
2018-11-26T07:12:48.987Z,2.70
2018-11-26T07:15:19.676Z,4.80
2018-11-26T07:17:48.616Z,3.73
2018-11-26T07:20:19.574Z,2.80
2018-11-26T07:22:48.719Z,1.73
2018-11-26T07:25:19.227Z,2.97
2018-11-26T07:27:51.346Z,2.00
2018-11-26T07:30:22.161Z,4.00
2018-11-26T07:32:51.776Z,3.07
2018-11-26T07:35:20.699Z,2.10
2018-11-26T07:37:49.908Z,2.20
2018-11-26T07:40:23.161Z,1.63
2018-11-26T07:43:08.514Z,1.90
2018-11-26T07:45:37.574Z,1.90
2018-11-26T07:48:08.114Z,1.57
2018-11-26T07:50:37.281Z,2.13
2018-11-26T07:53:08.898Z,1.83
2018-11-26T07:55:38.915Z,2.37
2018-11-26T07:58:07.793Z,3.53
2018-11-26T08:00:37.471Z,3.00
2018-11-26T08:03:07.025Z,4.30
2018-11-26T08:05:35.944Z,1.87
2018-11-26T08:08:04.861Z,1.90
2018-11-26T08:10:36.771Z,1.63
2018-11-26T08:13:06.094Z,1.60
2018-11-26T08:15:34.961Z,1.60
2018-11-26T08:18:03.915Z,2.27
2018-11-26T08:20:32.753Z,2.10
2018-11-26T08:23:02.118Z,2.07
2018-11-26T08:25:31.206Z,2.93
2018-11-26T08:28:00.121Z,3.17
2018-11-26T08:30:28.974Z,4.10
2018-11-26T08:33:00.524Z,5.03
2018-11-26T08:35:30.129Z,2.93
2018-11-26T08:38:04.996Z,3.87
2018-11-26T08:40:39.240Z,3.47
2018-11-26T08:43:13.918Z,2.90
2018-11-26T08:45:52.840Z,4.37
2018-11-26T08:48:28.800Z,4.70
2018-11-26T08:50:59.649Z,2.57
2018-11-26T08:53:28.589Z,7.63
2018-11-26T08:55:57.469Z,6.47
2018-11-26T08:58:26.424Z,6.50
2018-11-26T09:01:00.760Z,7.53
2018-11-26T09:03:35.966Z,4.07
2018-11-26T09:06:05.749Z,4.90
2018-11-26T09:08:37.024Z,7.83
2018-11-26T09:11:08.336Z,5.63
2018-11-26T09:13:37.397Z,3.70
2018-11-26T09:16:06.414Z,1.90
2018-11-26T09:18:36.033Z,2.37
2018-11-26T09:21:05.021Z,3.73
2018-11-26T09:23:34.676Z,2.37
2018-11-26T09:26:03.716Z,2.23
2018-11-26T09:28:32.606Z,4.80
2018-11-26T09:31:01.456Z,2.13
2018-11-26T09:33:30.346Z,2.73
2018-11-26T09:35:59.294Z,3.70
2018-11-26T09:38:28.454Z,1.80
2018-11-26T09:40:57.669Z,2.13
2018-11-26T09:43:26.789Z,4.37
2018-11-26T09:45:55.926Z,5.50
2018-11-26T09:48:28.250Z,5.33
2018-11-26T09:51:01.785Z,2.40
2018-11-26T09:53:30.947Z,3.93
2018-11-26T09:58:50.252Z,3.43
2018-11-26T10:01:19.665Z,0.90
2018-11-26T10:03:50.632Z,1.63
2018-11-26T10:06:19.879Z,2.77
2018-11-26T10:08:49.362Z,2.50
2018-11-26T10:11:19.865Z,3.83
2018-11-26T10:13:49.532Z,5.07
2018-11-26T10:16:19.073Z,2.80
2018-11-26T10:18:49.017Z,3.77
2018-11-26T10:21:19.807Z,5.60
2018-11-26T10:23:49.544Z,4.33
2018-11-26T10:26:18.701Z,1.80
2018-11-26T10:28:47.922Z,4.70
2018-11-26T10:31:17.077Z,5.03
2018-11-26T10:33:49.677Z,3.97
2018-11-26T10:36:18.657Z,9.97
2018-11-26T10:38:47.637Z,4.10
2018-11-26T10:41:16.557Z,2.97
2018-11-26T10:43:46.995Z,2.53
2018-11-26T10:46:16.898Z,4.17
2018-11-26T10:48:46.902Z,2.50
2018-11-26T10:51:16.009Z,2.30
2018-11-26T10:54:06.272Z,3.30
2018-11-26T10:56:35.334Z,6.73
2018-11-26T10:59:04.477Z,2.07
2018-11-26T11:01:38.809Z,1.80
2018-11-26T11:04:08.285Z,5.70
2018-11-26T11:06:38.582Z,2.45
2018-11-26T11:09:08.752Z,4.17
2018-11-26T11:11:37.733Z,3.07
2018-11-26T11:14:08.146Z,2.70
2018-11-26T11:16:37.222Z,2.80
2018-11-26T11:19:06.387Z,2.63
2018-11-26T11:21:38.379Z,5.40
2018-11-26T11:24:07.544Z,4.63
2018-11-26T11:26:37.206Z,3.10
2018-11-26T11:29:06.644Z,5.00
2018-11-26T11:31:35.585Z,6.00
2018-11-26T11:34:04.867Z,6.17
2018-11-26T11:36:33.795Z,11.50
2018-11-26T11:39:03.104Z,10.47
2018-11-26T11:41:34.555Z,5.27
2018-11-26T11:44:08.719Z,3.73
2018-11-26T11:46:44.738Z,8.20
2018-11-26T11:49:15.942Z,6.43
2018-11-26T11:51:47.208Z,7.93
2018-11-26T11:54:18.522Z,4.63
2018-11-26T11:56:48.081Z,4.37
2018-11-26T11:59:18.629Z,4.00
2018-11-26T12:01:48.289Z,4.27
2018-11-26T12:04:17.551Z,7.00
2018-11-26T12:06:46.788Z,6.20
2018-11-26T12:09:15.706Z,3.27
2018-11-26T12:11:44.604Z,2.87
2018-11-26T12:14:13.581Z,4.58
2018-11-26T12:16:42.494Z,3.47
2018-11-26T12:19:11.426Z,5.60
2018-11-26T12:21:44.394Z,5.42
2018-11-26T12:24:14.047Z,3.42
2018-11-26T12:26:43.021Z,3.42
2018-11-26T12:29:12.026Z,4.08
2018-11-26T12:31:40.961Z,3.15
2018-11-26T12:34:09.838Z,7.53
2018-11-26T12:36:39.153Z,3.95
2018-11-26T12:39:13.023Z,4.62
2018-11-26T12:41:42.015Z,2.85
2018-11-26T12:44:10.961Z,3.10
2018-11-26T12:46:40.035Z,7.03
2018-11-26T12:49:08.976Z,6.78
2018-11-26T12:51:37.921Z,6.08
2018-11-26T12:54:07.014Z,4.90
2018-11-26T12:56:36.455Z,4.30
2018-11-26T13:02:29.997Z,3.42
2018-11-26T13:04:59.961Z,5.08
2018-11-26T13:07:29.166Z,3.08
2018-11-26T13:09:58.141Z,6.53
2018-11-26T13:12:27.536Z,3.23
2018-11-26T13:14:56.571Z,2.80
2018-11-26T13:17:25.591Z,3.23
2018-11-26T13:19:55.190Z,4.20
2018-11-26T13:22:24.229Z,8.17
2018-11-26T13:24:54.744Z,3.60
2018-11-26T13:27:26.964Z,4.33
2018-11-26T13:29:57.026Z,2.73
2018-11-26T13:32:26.349Z,5.33
2018-11-26T13:34:56.332Z,5.93
2018-11-26T13:37:28.239Z,3.17
2018-11-26T13:39:59.382Z,3.70
2018-11-26T13:42:29.249Z,3.73
2018-11-26T13:44:59.660Z,2.17
2018-11-26T13:47:29.697Z,3.90
2018-11-26T13:49:59.238Z,2.50
2018-11-26T13:52:28.896Z,3.63
2018-11-26T13:54:58.351Z,2.10
2018-11-26T13:57:27.750Z,2.60
2018-11-26T13:59:57.339Z,3.33
2018-11-26T14:02:26.987Z,13.00
2018-11-26T14:04:56.586Z,10.93
2018-11-26T14:07:26.173Z,2.97
2018-11-26T14:09:55.681Z,4.30
2018-11-26T14:12:25.256Z,3.30
2018-11-26T14:14:55.349Z,4.27
2018-11-26T14:17:24.919Z,7.17
2018-11-26T14:19:54.505Z,7.03
2018-11-26T14:22:24.469Z,4.70
2018-11-26T14:24:55.308Z,3.40
2018-11-26T14:27:26.798Z,5.70
2018-11-26T14:29:57.249Z,3.70
2018-11-26T14:32:28.147Z,12.33
2018-11-26T14:34:58.342Z,5.77
2018-11-26T14:37:29.536Z,3.37
2018-11-26T14:39:59.695Z,4.60
2018-11-26T14:42:29.806Z,6.50
2018-11-26T14:45:00.219Z,13.00
2018-11-26T14:47:29.688Z,4.73
2018-11-26T14:49:59.154Z,3.17
2018-11-26T14:52:28.591Z,2.87
2018-11-26T14:54:58.094Z,2.00
2018-11-26T14:57:27.553Z,1.97
2018-11-26T14:59:56.983Z,1.87
2018-11-26T15:02:26.416Z,1.67
2018-11-26T15:04:55.876Z,3.30
2018-11-26T15:07:25.349Z,1.63
2018-11-26T15:09:54.864Z,1.40
2018-11-26T15:12:24.391Z,3.70
2018-11-26T15:14:53.891Z,3.30
2018-11-26T15:17:23.393Z,3.90
2018-11-26T15:19:52.886Z,3.50
2018-11-26T15:22:22.354Z,3.20
2018-11-26T15:24:51.736Z,3.67
2018-11-26T15:27:21.233Z,2.63
2018-11-26T15:29:50.718Z,3.07
2018-11-26T15:32:20.169Z,4.70
2018-11-26T15:34:49.608Z,6.97
2018-11-26T15:37:19.142Z,10.87
2018-11-26T15:39:48.939Z,7.67
2018-11-26T15:42:18.762Z,4.53
2018-11-26T15:44:49.123Z,4.17
2018-11-26T15:47:18.904Z,1.67
2018-11-26T15:49:49.130Z,1.83
2018-11-26T15:52:19.343Z,3.40
2018-11-26T15:54:49.669Z,2.00
2018-11-26T15:57:19.941Z,5.10
2018-11-26T15:59:50.549Z,3.03
2018-11-26T16:02:20.929Z,6.77
2018-11-26T16:04:51.638Z,3.00
2018-11-26T16:07:22.224Z,2.67
2018-11-26T16:09:54.011Z,14.97
2018-11-26T16:12:24.320Z,7.20
2018-11-26T16:14:54.774Z,9.53
2018-11-26T16:17:25.386Z,4.87
2018-11-26T16:19:55.636Z,6.07
2018-11-26T16:22:25.990Z,8.67
2018-11-26T16:24:56.665Z,5.80
2018-11-26T16:27:26.315Z,4.30
2018-11-26T16:29:55.974Z,2.83
2018-11-26T16:32:25.623Z,3.80
2018-11-26T16:34:55.219Z,4.23
2018-11-26T16:37:24.758Z,7.70
2018-11-26T16:39:54.258Z,6.70
2018-11-26T16:42:23.807Z,5.33
2018-11-26T16:44:53.291Z,11.57
2018-11-26T16:54:24.897Z,15.67
2018-11-26T16:57:25.516Z,6.90
2018-11-26T17:00:41.507Z,6.10
2018-11-26T17:03:13.569Z,70.60
2018-11-26T17:05:45.959Z,18.10
2018-11-26T17:08:17.872Z,5.13
2018-11-26T17:10:50.485Z,6.27
2018-11-26T17:13:25.163Z,8.67
2018-11-26T17:16:00.869Z,19.13
2018-11-26T17:18:36.039Z,22.63
2018-11-26T17:21:11.675Z,27.13
2018-11-26T17:23:47.112Z,68.83
2018-11-26T17:26:22.402Z,14.70
2018-11-26T17:28:58.549Z,4.77
2018-11-26T17:31:32.754Z,10.13
2018-11-26T17:34:08.049Z,9.50
2018-11-26T17:36:41.274Z,15.17
2018-11-26T17:39:13.802Z,11.80
2018-11-26T17:41:47.609Z,8.60
2018-11-26T17:44:29.041Z,3.70
2018-11-26T17:47:07.538Z,11.17
2018-11-26T17:49:42.632Z,5.70
2018-11-26T17:52:22.740Z,7.73
2018-11-26T17:54:59.584Z,5.50
2018-11-26T17:57:39.569Z,4.70
2018-11-26T18:00:27.125Z,4.07
2018-11-26T18:03:04.749Z,5.03
2018-11-26T18:05:41.635Z,8.17
2018-11-26T18:08:16.760Z,22.77
2018-11-26T18:10:54.418Z,14.63
2018-11-26T18:13:28.250Z,9.70
2018-11-26T18:16:03.567Z,15.83
2018-11-26T18:18:35.655Z,11.80
2018-11-26T18:23:57.557Z,5.67
2018-11-26T18:26:29.597Z,11.43
2018-11-26T18:28:59.060Z,9.37
2018-11-26T18:31:28.528Z,11.27
2018-11-26T18:33:57.939Z,9.33
2018-11-26T18:36:27.379Z,9.17
2018-11-26T18:38:57.239Z,7.00
2018-11-26T18:41:26.778Z,5.20
2018-11-26T18:43:56.241Z,5.70
2018-11-26T18:46:25.761Z,12.87
2018-11-26T18:48:55.434Z,4.47
2018-11-26T18:51:24.896Z,3.80
2018-11-26T18:53:54.351Z,7.87
2018-11-26T18:56:24.046Z,6.63
2018-11-26T18:58:53.385Z,21.83
2018-11-26T19:01:22.931Z,8.80
2018-11-26T19:03:52.695Z,10.80
2018-11-26T19:06:23.145Z,17.30
2018-11-26T19:08:54.566Z,23.87
2018-11-26T19:11:24.731Z,20.00
2018-11-26T19:14:11.422Z,22.80
2018-11-26T19:16:45.794Z,21.07
2018-11-26T19:19:15.645Z,17.63
2018-11-26T19:21:45.058Z,11.37
2018-11-26T19:24:14.701Z,16.17
2018-11-26T19:26:44.384Z,5.10
2018-11-26T19:29:13.859Z,4.30
2018-11-26T19:31:43.779Z,5.43
2018-11-26T19:34:13.462Z,8.87
2018-11-26T19:36:43.140Z,11.73
2018-11-26T19:39:12.711Z,8.67
2018-11-26T19:41:42.321Z,12.23
2018-11-26T19:44:11.811Z,14.77
2018-11-26T19:46:41.556Z,15.63
2018-11-26T19:49:11.342Z,28.97
2018-11-26T19:51:40.871Z,56.87
2018-11-26T19:54:11.359Z,42.90
2018-11-26T19:56:41.099Z,50.53
2018-11-26T19:59:10.640Z,70.30
2018-11-26T20:01:40.423Z,25.23
2018-11-26T20:04:45.273Z,17.13
2018-11-26T20:07:15.025Z,16.53
2018-11-26T20:09:44.649Z,18.43
2018-11-26T20:12:14.275Z,15.63
2018-11-26T20:14:43.858Z,14.60
2018-11-26T20:17:13.576Z,28.83
2018-11-26T20:19:43.263Z,31.37
2018-11-26T20:22:12.802Z,37.53
2018-11-26T20:24:42.316Z,13.43
2018-11-26T20:27:11.923Z,9.43
2018-11-26T20:29:42.435Z,15.63
2018-11-26T20:32:11.911Z,8.13
2018-11-26T20:34:42.026Z,9.57
2018-11-26T20:37:11.565Z,9.47
2018-11-26T20:39:41.101Z,9.63
2018-11-26T20:42:10.548Z,13.80
2018-11-26T20:44:40.909Z,29.50
2018-11-26T20:47:10.764Z,27.17
2018-11-26T20:49:41.258Z,124.37
2018-11-26T20:52:11.964Z,36.47
2018-11-26T20:54:41.603Z,42.80
2018-11-26T20:57:11.213Z,31.03
2018-11-26T20:59:41.334Z,24.10
2018-11-26T21:02:11.032Z,20.40
2018-11-26T21:04:40.619Z,19.93
2018-11-26T21:07:11.466Z,17.33
2018-11-26T21:09:42.145Z,23.33
2018-11-26T21:12:11.769Z,30.70
2018-11-26T21:14:41.369Z,28.53
2018-11-26T21:17:10.972Z,29.43
2018-11-26T21:19:40.564Z,31.27
2018-11-26T21:22:10.126Z,33.87
2018-11-26T21:24:39.644Z,26.17
2018-11-26T21:27:10.257Z,25.10
2018-11-26T21:29:41.297Z,29.07
2018-11-26T21:32:11.635Z,23.63
2018-11-26T21:34:42.110Z,28.63
2018-11-26T21:37:13.194Z,30.93
2018-11-26T21:39:43.505Z,27.67
2018-11-26T21:42:13.221Z,27.23
2018-11-26T21:44:43.975Z,25.03
2018-11-26T21:47:13.710Z,13.50
2018-11-26T21:49:43.319Z,6.57
2018-11-26T21:52:13.041Z,5.57
2018-11-26T21:54:43.558Z,8.07
2018-11-26T21:57:14.990Z,6.00
2018-11-26T21:59:44.789Z,9.57
2018-11-26T22:02:16.766Z,7.27
2018-11-26T22:04:47.319Z,8.43
2018-11-26T22:07:18.477Z,9.90
2018-11-26T22:09:48.216Z,14.13
2018-11-26T22:12:18.442Z,8.93
2018-11-26T22:14:48.858Z,8.67
2018-11-26T22:17:18.938Z,11.43
2018-11-26T22:19:49.915Z,11.93
2018-11-26T22:22:19.510Z,12.97
2018-11-26T22:24:49.495Z,13.63
2018-11-26T22:27:19.237Z,9.97
2018-11-26T22:29:50.286Z,7.37
2018-11-26T22:32:22.522Z,11.27
2018-11-26T22:34:53.490Z,8.47
2018-11-26T22:37:23.005Z,9.20
2018-11-26T22:39:52.398Z,8.33
2018-11-26T22:42:21.865Z,9.50
2018-11-26T22:44:52.395Z,9.33
2018-11-26T22:47:23.095Z,8.30
2018-11-26T22:49:53.503Z,9.77
2018-11-26T22:52:23.097Z,11.17
2018-11-26T22:54:52.657Z,15.67
2018-11-26T22:57:22.182Z,12.37
2018-11-26T22:59:51.749Z,9.97
2018-11-26T23:02:21.287Z,12.33
2018-11-26T23:04:50.765Z,11.30
2018-11-26T23:07:20.222Z,13.00
2018-11-26T23:09:49.688Z,10.13
2018-11-26T23:12:19.217Z,6.77
2018-11-26T23:14:48.797Z,6.53
2018-11-26T23:17:18.179Z,7.40
2018-11-26T23:19:47.724Z,7.07
2018-11-26T23:22:17.875Z,9.97
2018-11-26T23:24:47.257Z,6.33
2018-11-26T23:27:18.120Z,14.50
2018-11-26T23:29:47.870Z,7.60
2018-11-26T23:32:17.590Z,16.93
2018-11-26T23:34:48.117Z,5.87
2018-11-26T23:37:17.711Z,6.93
2018-11-26T23:39:48.262Z,5.87
2018-11-26T23:42:25.752Z,9.00
2018-11-26T23:44:55.605Z,9.43
2018-11-26T23:47:27.258Z,6.30
2018-11-26T23:49:57.240Z,8.27
2018-11-26T23:52:26.978Z,9.60
2018-11-26T23:54:56.451Z,8.70
2018-11-26T23:57:26.090Z,7.77
2018-11-26T23:59:55.577Z,7.73
